createdAt,value
2023-04-19T00:00:57.937Z,10.17
2023-04-19T00:03:28.318Z,6.07
2023-04-19T00:06:02.692Z,9.47
2023-04-19T00:08:32.742Z,7.53
2023-04-19T00:11:03.105Z,6.73
2023-04-19T00:13:33.300Z,8.13
2023-04-19T00:16:03.511Z,6.43
2023-04-19T00:18:33.542Z,6.10
2023-04-19T00:21:06.919Z,5.37
2023-04-19T00:23:37.408Z,8.83
2023-04-19T00:26:07.949Z,10.53
2023-04-19T00:28:40.824Z,5.90
2023-04-19T00:31:13.297Z,5.10
2023-04-19T00:33:45.704Z,5.83
2023-04-19T00:36:21.132Z,6.80
2023-04-19T00:38:51.884Z,6.07
2023-04-19T00:41:22.331Z,5.00
2023-04-19T00:43:53.825Z,4.77
2023-04-19T00:46:24.643Z,5.73
2023-04-19T00:48:56.040Z,7.30
2023-04-19T00:51:30.044Z,6.20
2023-04-19T00:54:01.218Z,4.27
2023-04-19T00:56:37.140Z,5.23
2023-04-19T00:59:07.637Z,5.00
2023-04-19T01:01:38.483Z,6.27
2023-04-19T01:04:09.358Z,5.53
2023-04-19T01:06:45.519Z,6.47
2023-04-19T01:09:15.605Z,6.53
2023-04-19T01:11:45.755Z,5.07
2023-04-19T01:14:18.226Z,5.30
2023-04-19T01:16:50.852Z,5.47
2023-04-19T01:19:25.050Z,5.30
2023-04-19T01:22:01.238Z,4.90
2023-04-19T01:24:35.660Z,6.83
2023-04-19T01:27:06.374Z,7.83
2023-04-19T01:29:36.880Z,6.03
2023-04-19T01:32:08.126Z,5.37
2023-04-19T01:34:39.793Z,5.23
2023-04-19T01:37:13.115Z,7.27
2023-04-19T01:39:51.220Z,9.77
2023-04-19T01:42:22.194Z,4.77
2023-04-19T01:44:52.379Z,6.57
2023-04-19T01:47:23.194Z,10.63
2023-04-19T01:49:53.663Z,5.77
2023-04-19T01:52:24.096Z,6.33
2023-04-19T01:54:56.850Z,8.47
2023-04-19T01:57:27.216Z,9.50
2023-04-19T01:59:57.553Z,7.80
2023-04-19T02:02:27.834Z,5.67
2023-04-19T02:04:57.939Z,5.90
2023-04-19T02:07:28.190Z,8.73
2023-04-19T02:10:03.967Z,5.33
2023-04-19T02:12:34.544Z,6.60
2023-04-19T02:15:07.193Z,5.23
2023-04-19T02:17:39.118Z,6.53
2023-04-19T02:20:13.283Z,6.97
2023-04-19T02:22:44.040Z,6.37
2023-04-19T02:25:20.115Z,4.83
2023-04-19T02:27:50.208Z,5.73
2023-04-19T02:30:22.023Z,5.80
2023-04-19T02:32:55.191Z,5.20
2023-04-19T02:35:28.676Z,5.27
2023-04-19T02:38:02.423Z,5.90
2023-04-19T02:40:35.363Z,5.03
2023-04-19T02:43:06.734Z,6.20
2023-04-19T02:45:37.458Z,4.83
2023-04-19T02:48:08.590Z,5.27
2023-04-19T02:50:41.460Z,5.30
2023-04-19T02:53:11.839Z,7.17
2023-04-19T02:55:45.256Z,6.13
2023-04-19T02:58:19.852Z,7.03
2023-04-19T03:01:02.074Z,5.97
2023-04-19T03:03:32.411Z,5.00
2023-04-19T03:06:02.582Z,6.03
2023-04-19T03:08:34.411Z,5.23
2023-04-19T03:11:10.232Z,5.93
2023-04-19T03:13:40.899Z,5.50
2023-04-19T03:16:12.092Z,6.50
2023-04-19T03:18:42.812Z,6.87
2023-04-19T03:21:13.838Z,5.63
2023-04-19T03:23:51.576Z,5.47
2023-04-19T03:26:25.266Z,11.27
2023-04-19T03:28:57.384Z,5.73
2023-04-19T03:31:37.296Z,6.37
2023-04-19T03:34:08.598Z,5.40
2023-04-19T03:36:43.805Z,5.53
2023-04-19T03:39:14.010Z,9.70
2023-04-19T03:41:49.014Z,4.60
2023-04-19T03:44:29.745Z,5.20
2023-04-19T03:46:59.842Z,5.90
2023-04-19T03:49:35.341Z,6.07
2023-04-19T03:52:08.194Z,7.90
2023-04-19T03:54:38.737Z,5.90
2023-04-19T03:57:20.653Z,4.67
2023-04-19T03:59:51.047Z,5.37
2023-04-19T04:02:22.652Z,4.63
2023-04-19T04:04:56.815Z,7.53
2023-04-19T04:07:27.581Z,7.87
2023-04-19T04:09:57.627Z,11.40
2023-04-19T04:12:30.649Z,8.17
2023-04-19T04:15:02.615Z,4.47
2023-04-19T04:17:34.487Z,7.93
2023-04-19T04:20:07.637Z,10.53
2023-04-19T04:22:39.158Z,7.43
2023-04-19T04:25:11.568Z,9.73
2023-04-19T04:27:45.874Z,10.93
2023-04-19T04:30:21.273Z,8.57
2023-04-19T04:32:52.557Z,7.33
2023-04-19T04:35:22.949Z,9.87
2023-04-19T04:38:00.053Z,35.40
2023-04-19T04:40:30.814Z,23.23
2023-04-19T04:43:04.544Z,12.53
2023-04-19T04:45:38.018Z,7.33
2023-04-19T04:48:09.349Z,10.80
2023-04-19T04:50:42.117Z,3.57
2023-04-19T04:53:13.191Z,4.53
2023-04-19T04:55:45.527Z,4.93
2023-04-19T04:58:20.549Z,3.87
2023-04-19T05:01:20.471Z,5.40
2023-04-19T05:03:53.379Z,6.33
2023-04-19T05:06:23.748Z,4.97
2023-04-19T05:08:56.979Z,6.53
2023-04-19T05:11:37.021Z,67.87
2023-04-19T05:14:12.990Z,4.83
2023-04-19T05:16:43.541Z,6.70
2023-04-19T05:19:14.382Z,3.60
2023-04-19T05:21:51.777Z,8.93
2023-04-19T05:24:24.826Z,3.67
2023-04-19T05:26:58.826Z,3.20
2023-04-19T05:29:34.976Z,3.80
2023-04-19T05:32:09.461Z,5.70
2023-04-19T05:34:51.611Z,5.13
2023-04-19T05:37:24.397Z,9.80
2023-04-19T05:39:57.511Z,4.90
2023-04-19T05:42:29.181Z,3.90
2023-04-19T05:45:06.151Z,5.30
2023-04-19T05:47:38.493Z,3.90
2023-04-19T05:50:32.497Z,4.27
2023-04-19T05:53:32.694Z,8.50
2023-04-19T05:56:03.154Z,4.30
2023-04-19T05:58:38.556Z,4.03
2023-04-19T06:01:14.838Z,4.17
2023-04-19T06:03:45.253Z,3.73
2023-04-19T06:06:16.030Z,3.47
2023-04-19T06:08:51.540Z,4.00
2023-04-19T06:11:38.794Z,6.23
2023-04-19T06:14:21.116Z,3.63
2023-04-19T06:16:57.619Z,9.40
2023-04-19T06:19:28.608Z,4.93
2023-04-19T06:21:58.767Z,4.73
2023-04-19T06:24:28.892Z,4.03
2023-04-19T06:26:59.715Z,5.63
2023-04-19T06:29:29.909Z,3.10
2023-04-19T06:32:02.767Z,3.47
2023-04-19T06:34:33.181Z,3.97
2023-04-19T06:37:04.113Z,5.47
2023-04-19T06:39:34.611Z,3.60
2023-04-19T06:42:05.723Z,10.00
2023-04-19T06:44:37.407Z,5.77
2023-04-19T06:47:10.263Z,10.33
2023-04-19T06:49:40.509Z,4.27
2023-04-19T06:52:10.702Z,4.10
2023-04-19T06:54:41.092Z,7.17
2023-04-19T06:57:11.340Z,9.13
2023-04-19T06:59:41.475Z,7.77
2023-04-19T07:02:14.309Z,4.38
2023-04-19T07:04:59.274Z,6.15
2023-04-19T07:07:29.387Z,6.15
2023-04-19T07:10:02.112Z,4.55
2023-04-19T07:12:32.760Z,3.25
2023-04-19T07:15:02.876Z,6.38
2023-04-19T07:17:37.941Z,5.25
2023-04-19T07:20:09.606Z,3.20
2023-04-19T07:22:40.248Z,5.40
2023-04-19T07:25:11.823Z,2.47
2023-04-19T07:27:42.256Z,3.42
2023-04-19T07:30:13.259Z,3.65
2023-04-19T07:32:46.736Z,3.90
2023-04-19T07:35:16.925Z,9.05
2023-04-19T07:37:47.038Z,4.00
2023-04-19T07:40:17.388Z,10.00
2023-04-19T07:42:47.703Z,3.42
2023-04-19T07:45:18.233Z,2.95
2023-04-19T07:47:51.169Z,4.28
2023-04-19T07:50:23.181Z,3.83
2023-04-19T07:52:53.526Z,3.60
2023-04-19T07:55:24.070Z,6.97
2023-04-19T07:57:54.211Z,5.70
2023-04-19T08:00:24.486Z,4.40
2023-04-19T08:02:57.579Z,2.75
2023-04-19T08:05:27.999Z,7.82
2023-04-19T08:07:58.588Z,6.55
2023-04-19T08:10:30.541Z,3.30
2023-04-19T08:13:05.120Z,3.90
2023-04-19T08:18:12.204Z,4.57
2023-04-19T08:20:42.768Z,4.60
2023-04-19T08:23:22.398Z,4.18
2023-04-19T08:25:55.991Z,4.78
2023-04-19T08:28:26.393Z,3.95
2023-04-19T08:30:57.853Z,4.03
2023-04-19T08:33:31.740Z,3.63
2023-04-19T08:36:02.331Z,4.63
2023-04-19T08:38:32.553Z,3.83
2023-04-19T08:41:03.983Z,5.90
2023-04-19T08:43:39.890Z,5.53
2023-04-19T08:46:14.871Z,3.80
2023-04-19T08:48:49.573Z,4.43
2023-04-19T08:51:20.668Z,6.82
2023-04-19T08:53:52.300Z,6.88
2023-04-19T08:56:34.882Z,3.92
2023-04-19T09:01:44.334Z,4.05
2023-04-19T09:04:35.828Z,6.05
2023-04-19T09:07:08.433Z,3.60
2023-04-19T09:09:52.030Z,9.57
2023-04-19T09:12:27.272Z,5.20
2023-04-19T09:15:01.671Z,5.40
2023-04-19T09:17:34.381Z,6.57
2023-04-19T09:20:08.685Z,4.13
2023-04-19T09:22:38.918Z,5.72
2023-04-19T09:27:43.081Z,6.18
2023-04-19T09:30:21.011Z,6.03
2023-04-19T09:33:01.043Z,5.50
2023-04-19T09:35:43.218Z,4.90
2023-04-19T09:38:13.900Z,5.47
2023-04-19T09:40:45.775Z,5.43
2023-04-19T09:43:45.108Z,8.02
2023-04-19T09:46:06.193Z,17.13
2023-04-19T09:48:37.249Z,12.95
2023-04-19T09:51:13.792Z,6.15
2023-04-19T09:53:46.043Z,5.07
2023-04-19T09:56:16.208Z,5.50
2023-04-19T09:58:51.073Z,4.63
2023-04-19T10:01:26.946Z,4.03
2023-04-19T10:04:03.525Z,6.45
2023-04-19T10:07:07.044Z,4.43
2023-04-19T10:09:37.653Z,5.68
2023-04-19T10:12:38.538Z,4.45
2023-04-19T10:15:03.325Z,6.35
2023-04-19T10:17:34.140Z,4.40
2023-04-19T10:20:10.798Z,4.88
2023-04-19T10:22:43.839Z,4.88
2023-04-19T10:25:16.071Z,8.00
2023-04-19T10:27:49.215Z,4.80
2023-04-19T10:30:23.402Z,4.53
2023-04-19T10:32:56.851Z,6.20
2023-04-19T10:35:29.532Z,5.63
2023-04-19T10:38:10.666Z,7.82
2023-04-19T10:41:05.761Z,223.18
2023-04-19T10:43:36.961Z,142.02
2023-04-19T10:46:10.715Z,281.08
2023-04-19T10:48:44.323Z,239.38
2023-04-19T10:51:19.382Z,541.35
2023-04-19T10:53:54.639Z,473.38
2023-04-19T10:56:48.303Z,372.98
2023-04-19T10:59:25.186Z,388.40
2023-04-19T11:01:58.585Z,154.38
2023-04-19T11:05:06.683Z,385.00
2023-04-19T11:07:41.460Z,236.93
2023-04-19T11:10:14.747Z,445.92
2023-04-19T11:12:47.781Z,158.07
2023-04-19T11:15:17.909Z,268.23
2023-04-19T11:20:18.786Z,101.15
2023-04-19T11:22:50.621Z,38.20
2023-04-19T11:25:24.892Z,32.28
2023-04-19T11:27:57.551Z,18.90
2023-04-19T11:30:35.524Z,14.10
2023-04-19T11:33:06.393Z,14.70
2023-04-19T11:35:38.734Z,5.97
2023-04-19T11:38:09.201Z,102.95
2023-04-19T11:40:42.635Z,476.10
2023-04-19T11:43:13.204Z,126.07
2023-04-19T11:45:45.499Z,604.58
2023-04-19T11:48:18.274Z,140.93
2023-04-19T11:50:50.212Z,243.77
2023-04-19T11:53:21.848Z,111.00
2023-04-19T11:55:58.047Z,152.93
2023-04-19T11:58:33.536Z,238.43
2023-04-19T12:01:09.671Z,435.43
2023-04-19T12:03:46.447Z,44.83
2023-04-19T12:06:19.143Z,208.87
2023-04-19T12:08:51.380Z,308.10
2023-04-19T12:11:26.812Z,213.17
2023-04-19T12:14:11.526Z,581.40
2023-04-19T12:16:42.486Z,194.27
2023-04-19T12:19:20.822Z,99.23
2023-04-19T12:21:51.238Z,487.83
2023-04-19T12:24:21.596Z,59.17
2023-04-19T12:27:01.919Z,356.87
2023-04-19T12:29:33.931Z,605.23
2023-04-19T12:32:04.251Z,19.23
2023-04-19T12:34:34.515Z,9.27
2023-04-19T12:37:05.161Z,9.70
2023-04-19T12:39:35.300Z,9.95
2023-04-19T12:42:08.861Z,10.47
2023-04-19T12:44:39.299Z,8.63
2023-04-19T12:47:24.611Z,10.30
2023-04-19T12:49:56.240Z,5.95
2023-04-19T12:52:26.687Z,7.15
2023-04-19T12:54:56.883Z,9.32
2023-04-19T12:57:30.487Z,5.60
2023-04-19T13:00:01.016Z,5.10
2023-04-19T13:02:32.243Z,6.50
2023-04-19T13:05:03.139Z,5.15
2023-04-19T13:07:33.551Z,12.35
2023-04-19T13:10:03.840Z,7.10
2023-04-19T13:12:36.780Z,5.25
2023-04-19T13:15:10.994Z,7.68
2023-04-19T13:17:41.350Z,6.30
2023-04-19T13:20:12.853Z,5.95
2023-04-19T13:22:43.015Z,8.27
2023-04-19T13:25:13.741Z,7.55
2023-04-19T13:27:47.323Z,5.13
2023-04-19T13:30:18.541Z,8.97
2023-04-19T13:32:48.949Z,5.27
2023-04-19T13:35:19.304Z,5.82
2023-04-19T13:37:51.534Z,7.97
2023-04-19T13:40:22.269Z,7.87
2023-04-19T13:42:56.925Z,8.27
2023-04-19T13:45:27.696Z,5.83
2023-04-19T13:47:58.268Z,6.70
2023-04-19T13:50:28.672Z,6.50
2023-04-19T13:52:59.270Z,5.53
2023-04-19T13:55:30.163Z,7.00
2023-04-19T13:58:03.497Z,6.90
2023-04-19T14:00:37.725Z,8.60
2023-04-19T14:03:08.492Z,7.47
2023-04-19T14:05:39.142Z,6.60
2023-04-19T14:08:09.628Z,6.23
2023-04-19T14:10:40.798Z,18.50
2023-04-19T14:13:14.684Z,14.47
2023-04-19T14:15:45.246Z,12.30
2023-04-19T14:18:15.442Z,7.57
2023-04-19T14:20:45.873Z,4.73
2023-04-19T14:23:16.267Z,8.60
2023-04-19T14:25:46.610Z,8.00
2023-04-19T14:28:19.532Z,6.43
2023-04-19T14:30:49.734Z,7.53
2023-04-19T14:33:19.877Z,7.63
2023-04-19T14:35:50.245Z,9.07
2023-04-19T14:38:20.373Z,45.60
2023-04-19T14:40:50.649Z,10.07
2023-04-19T14:43:23.374Z,6.77
2023-04-19T14:45:56.738Z,8.83
2023-04-19T14:48:27.943Z,11.80
2023-04-19T14:50:59.300Z,14.90
2023-04-19T14:53:29.641Z,7.80
2023-04-19T14:56:00.347Z,10.20
2023-04-19T14:58:35.278Z,7.87
2023-04-19T15:01:14.530Z,13.17
2023-04-19T15:03:45.330Z,12.57
2023-04-19T15:06:15.901Z,11.13
2023-04-19T15:08:47.274Z,9.67
2023-04-19T15:11:18.216Z,10.93
2023-04-19T15:13:51.209Z,13.60
2023-04-19T15:16:21.421Z,11.23
2023-04-19T15:18:51.940Z,13.77
2023-04-19T15:21:24.901Z,11.43
2023-04-19T15:24:01.484Z,11.47
2023-04-19T15:26:31.920Z,12.10
2023-04-19T15:29:05.115Z,10.17
2023-04-19T15:31:37.302Z,7.50
2023-04-19T15:34:08.128Z,13.80
2023-04-19T15:36:40.148Z,10.10
2023-04-19T15:39:10.626Z,9.17
2023-04-19T15:41:41.452Z,12.93
2023-04-19T15:44:14.433Z,16.17
2023-04-19T15:46:44.833Z,14.43
2023-04-19T15:49:15.527Z,14.20
2023-04-19T15:51:45.815Z,10.73
2023-04-19T15:54:17.659Z,10.57
2023-04-19T15:56:53.118Z,10.47
2023-04-19T15:59:26.288Z,9.90
2023-04-19T16:01:56.509Z,11.33
2023-04-19T16:04:26.844Z,14.17
2023-04-19T16:06:56.984Z,11.30
2023-04-19T16:09:27.156Z,13.47
2023-04-19T16:11:57.372Z,11.47
2023-04-19T16:14:30.231Z,11.60
2023-04-19T16:17:03.172Z,13.07
2023-04-19T16:19:36.472Z,20.17
2023-04-19T16:22:06.866Z,11.33
2023-04-19T16:24:37.366Z,15.13
2023-04-19T16:27:07.972Z,12.50
2023-04-19T16:29:41.376Z,14.50
2023-04-19T16:32:12.682Z,12.10
2023-04-19T16:34:42.888Z,14.23
2023-04-19T16:37:13.244Z,11.07
2023-04-19T16:39:43.724Z,11.90
2023-04-19T16:42:13.986Z,11.83
2023-04-19T16:44:46.818Z,106.77
2023-04-19T16:47:16.970Z,13.90
2023-04-19T16:49:48.081Z,11.10
2023-04-19T16:52:20.043Z,9.30
2023-04-19T16:54:52.995Z,10.93
2023-04-19T16:57:23.988Z,14.00
2023-04-19T16:59:57.038Z,12.83
2023-04-19T17:02:33.158Z,15.87
2023-04-19T17:05:04.017Z,13.27
2023-04-19T17:07:34.910Z,10.83
2023-04-19T17:10:06.005Z,11.17
2023-04-19T17:12:36.617Z,10.40
2023-04-19T17:15:10.302Z,18.57
2023-04-19T17:17:41.417Z,13.53
2023-04-19T17:20:13.939Z,11.40
2023-04-19T17:22:44.205Z,9.63
2023-04-19T17:25:14.424Z,12.60
2023-04-19T17:27:44.640Z,10.47
2023-04-19T17:30:18.118Z,14.13
2023-04-19T17:32:48.405Z,69.17
2023-04-19T17:35:18.901Z,13.83
2023-04-19T17:37:49.108Z,13.60
2023-04-19T17:40:19.441Z,12.43
2023-04-19T17:42:49.669Z,9.90
2023-04-19T17:45:25.333Z,14.00
2023-04-19T17:47:58.767Z,12.47
2023-04-19T17:50:37.349Z,12.90
2023-04-19T17:53:08.073Z,14.27
2023-04-19T17:55:40.181Z,12.23
2023-04-19T17:58:17.808Z,12.30
2023-04-19T18:00:51.272Z,9.90
2023-04-19T18:03:22.177Z,10.13
2023-04-19T18:05:53.149Z,12.63
2023-04-19T18:08:23.975Z,15.50
2023-04-19T18:10:54.566Z,9.50
2023-04-19T18:13:27.839Z,9.10
2023-04-19T18:16:05.359Z,9.17
2023-04-19T18:18:38.848Z,9.40
2023-04-19T18:21:09.711Z,9.37
2023-04-19T18:23:41.297Z,10.20
2023-04-19T18:26:15.986Z,12.17
2023-04-19T18:28:50.670Z,11.03
2023-04-19T18:31:25.891Z,12.80
2023-04-19T18:33:56.529Z,55.20
2023-04-19T18:36:30.205Z,10.37
2023-04-19T18:39:12.215Z,9.87
2023-04-19T18:41:46.603Z,9.60
2023-04-19T18:44:34.634Z,13.23
2023-04-19T18:47:14.380Z,13.63
2023-04-19T18:49:55.612Z,10.67
2023-04-19T18:52:48.573Z,10.97
2023-04-19T18:55:23.674Z,13.63
2023-04-19T18:57:55.412Z,12.53
2023-04-19T19:00:35.540Z,13.13
2023-04-19T19:03:29.097Z,12.87
2023-04-19T19:06:05.087Z,9.97
2023-04-19T19:08:39.618Z,15.53
2023-04-19T19:13:45.611Z,14.23
2023-04-19T19:16:23.382Z,10.73
2023-04-19T19:18:56.631Z,17.80
2023-04-19T19:21:32.805Z,17.57
2023-04-19T19:24:06.634Z,14.13
2023-04-19T19:26:39.069Z,13.20
2023-04-19T19:29:09.802Z,14.30
2023-04-19T19:31:45.488Z,12.87
2023-04-19T19:34:28.718Z,14.90
2023-04-19T19:37:00.978Z,11.67
2023-04-19T19:39:33.791Z,17.47
2023-04-19T19:42:13.995Z,15.63
2023-04-19T19:44:44.786Z,13.10
2023-04-19T19:47:19.987Z,16.83
2023-04-19T19:50:41.046Z,14.60
2023-04-19T19:52:48.189Z,28.00
2023-04-19T19:55:18.907Z,20.83
2023-04-19T19:58:25.735Z,16.43
2023-04-19T20:00:47.019Z,15.20
2023-04-19T20:03:36.085Z,12.47
2023-04-19T20:08:52.513Z,12.10
2023-04-19T20:11:23.105Z,14.97
2023-04-19T20:13:57.760Z,14.17
2023-04-19T20:16:29.461Z,15.43
2023-04-19T20:19:09.774Z,11.50
2023-04-19T20:21:48.025Z,11.73
2023-04-19T20:24:21.315Z,11.90
2023-04-19T20:26:52.637Z,12.07
2023-04-19T20:29:40.191Z,12.90
2023-04-19T20:32:11.390Z,12.30
2023-04-19T20:34:43.181Z,11.77
2023-04-19T20:37:20.522Z,13.43
2023-04-19T20:39:52.408Z,19.40
2023-04-19T20:42:24.180Z,14.17
2023-04-19T20:44:57.393Z,13.53
2023-04-19T20:47:46.327Z,11.53
2023-04-19T20:50:26.569Z,10.70
2023-04-19T20:52:59.652Z,11.90
2023-04-19T20:55:30.277Z,10.93
2023-04-19T20:58:00.439Z,12.60
2023-04-19T21:00:30.788Z,12.70
2023-04-19T21:03:01.172Z,11.70
2023-04-19T21:05:35.301Z,12.10
2023-04-19T21:08:11.488Z,13.03
2023-04-19T21:10:41.571Z,11.43
2023-04-19T21:13:12.155Z,10.80
2023-04-19T21:15:42.964Z,12.17
2023-04-19T21:18:13.753Z,11.23
2023-04-19T21:20:44.640Z,12.67
2023-04-19T21:23:17.361Z,11.73
2023-04-19T21:25:48.577Z,11.30
2023-04-19T21:28:19.267Z,13.20
2023-04-19T21:30:49.549Z,12.33
2023-04-19T21:33:20.193Z,11.93
2023-04-19T21:35:52.053Z,12.40
2023-04-19T21:38:27.800Z,12.00
2023-04-19T21:40:59.319Z,12.77
2023-04-19T21:43:33.725Z,12.43
2023-04-19T21:46:05.892Z,11.50
2023-04-19T21:48:37.062Z,11.93
2023-04-19T21:51:08.529Z,12.63
2023-04-19T21:53:45.002Z,12.70
2023-04-19T21:56:15.777Z,12.17
2023-04-19T21:58:48.598Z,11.40
2023-04-19T22:01:19.278Z,12.43
2023-04-19T22:03:49.706Z,12.80
2023-04-19T22:06:22.264Z,12.03
2023-04-19T22:09:06.197Z,12.03
2023-04-19T22:11:37.688Z,11.80
2023-04-19T22:14:07.975Z,11.90
2023-04-19T22:16:38.382Z,11.87
2023-04-19T22:19:08.933Z,12.37
2023-04-19T22:21:39.553Z,12.90
2023-04-19T22:24:12.990Z,12.50
2023-04-19T22:26:46.478Z,12.13
2023-04-19T22:29:18.466Z,11.93
2023-04-19T22:31:49.351Z,11.40
2023-04-19T22:34:22.798Z,10.30
2023-04-19T22:36:58.605Z,11.33
2023-04-19T22:39:35.295Z,11.53
2023-04-19T22:42:05.521Z,11.80
2023-04-19T22:44:36.001Z,10.97
2023-04-19T22:47:08.371Z,11.47
2023-04-19T22:49:38.675Z,11.43
2023-04-19T22:52:10.588Z,12.87
2023-04-19T22:54:45.580Z,11.20
2023-04-19T22:57:17.093Z,11.40
2023-04-19T22:59:51.320Z,11.90
2023-04-19T23:02:21.894Z,11.83
2023-04-19T23:04:52.351Z,10.90
2023-04-19T23:07:23.751Z,10.97
2023-04-19T23:09:59.512Z,11.77
2023-04-19T23:12:33.847Z,11.67
2023-04-19T23:15:06.411Z,10.90
2023-04-19T23:17:40.164Z,11.07
2023-04-19T23:20:15.198Z,11.00
2023-04-19T23:22:50.214Z,11.57
2023-04-19T23:25:25.456Z,10.90
2023-04-19T23:27:56.901Z,10.93
2023-04-19T23:30:29.263Z,11.00
2023-04-19T23:33:01.787Z,10.40
2023-04-19T23:35:32.274Z,9.83
2023-04-19T23:38:05.010Z,10.50
2023-04-19T23:40:38.584Z,11.60
2023-04-19T23:43:14.612Z,10.00
2023-04-19T23:45:45.384Z,10.30
2023-04-19T23:48:25.135Z,9.07
2023-04-19T23:50:57.136Z,10.40
2023-04-19T23:53:27.536Z,9.87
2023-04-19T23:56:11.547Z,9.67
2023-04-19T23:58:43.795Z,10.37
